Aristomenis — D5OA5 — position and weather

sailwx.info

Track history (hours):
 
Tides and Currents Weather Stations Pressure Air Temp Water Temp Dewpoint Dewpoint Depression Visibility Wind Speed Wind Dir Waves Ship Positions

Aristomenis

Last reported at 2018-Jul-17 16:24 UTC. Time now 2018-Jul-20 06:54 UTC.
Position N 35°05' E 129°26'.

Length 350 m; draft 9 m.

Type: Ship (hazmat cat B). MMSI: 636018070.

Date/timePositionNaut miles runAvg speedWind from/ knotsBaromVisibWave heightAir tempDewpointWater temp
2018-Jul-17 16:24N 35°05' E 129°26'613.9
2018-Jul-17 16:00N 35°00' E 129°22'713.6
2018-Jul-17 15:30N 34°55' E 129°17'  
2018-Jul-14 06:57N 24°29' E 119°15'6 9.7
2018-Jul-14 06:20N 24°25' E 119°10'9 9.5
2018-Jul-14 05:26N 24°20' E 119°03'4 9.3
2018-Jul-14 04:59N 24°17' E 118°59'5 9.1
2018-Jul-14 04:27N 24°14' E 118°55'0 0.0
2018-Jul-13 21:40N 24°14' E 118°55'0 0.3
2018-Jul-13 21:28N 24°14' E 118°55'0 0.0
2018-Jul-13 20:58N 24°14' E 118°55'0 0.0
2018-Jul-13 20:28N 24°14' E 118°55'0 0.0
2018-Jul-13 19:46N 24°14' E 118°55'0 0.0
2018-Jul-13 19:16N 24°14' E 118°55'0 0.0
2018-Jul-13 18:58N 24°14' E 118°55'0 0.0
2018-Jul-13 18:19N 24°14' E 118°55'0 0.0
2018-Jul-13 17:58N 24°14' E 118°55'0 0.0
2018-Jul-13 17:28N 24°14' E 118°55'0 0.0
2018-Jul-13 16:58N 24°14' E 118°55'0 0.3
2018-Jul-13 16:22N 24°14' E 118°55'0 0.0
2018-Jul-13 09:16N 24°14' E 118°55'0 0.0
2018-Jul-12 22:40N 24°14' E 118°55'0 0.1
2018-Jul-12 19:22N 24°14' E 118°55'0 0.0
2018-Jul-12 18:52N 24°14' E 118°55'0 0.1
2018-Jul-12 18:28N 24°14' E 118°55'0 0.1
2018-Jul-12 17:46N 24°14' E 118°55'0 0.0
2018-Jul-12 07:43N 24°14' E 118°55'0 0.2
2018-Jul-12 07:28N 24°14' E 118°55'0 0.1
2018-Jul-12 06:40N 24°14' E 118°55'0 0.1
2018-Jul-12 06:19N 24°14' E 118°55'0 0.0
2018-Jul-12 03:43N 24°14' E 118°55'0 0.0
2018-Jul-12 03:28N 24°14' E 118°55'0 0.1
2018-Jul-12 02:10N 24°14' E 118°55'0 0.1
2018-Jul-11 23:16N 24°14' E 118°55'0 0.0
2018-Jul-11 22:52N 24°14' E 118°55'0 0.0
2018-Jul-11 22:22N 24°14' E 118°55'0 0.0
2018-Jul-11 21:52N 24°14' E 118°55'0 0.0
2018-Jul-11 20:40N 24°14' E 118°55'0 0.0
2018-Jul-11 20:10N 24°14' E 118°55'0 0.2
2018-Jul-11 19:46N 24°14' E 118°55'0 0.0
2018-Jul-11 17:22N 24°14' E 118°55'0 0.0
2018-Jul-11 16:22N 24°14' E 118°55'0 0.1
2018-Jul-11 15:58N 24°14' E 118°55'0 0.1
2018-Jul-11 14:34N 24°14' E 118°55'0 0.5
2018-Jul-11 14:28N 24°14' E 118°55'0 0.0
2018-Jul-11 13:31N 24°14' E 118°55'0 0.0
2018-Jul-11 13:22N 24°14' E 118°55'0 0.0
2018-Jul-11 12:55N 24°14' E 118°55'0 0.0
2018-Jul-11 12:10N 24°14' E 118°55'0 0.3
2018-Jul-11 11:58N 24°14' E 118°55'0 0.1
2018-Jul-11 11:28N 24°14' E 118°55'1 1.8
2018-Jul-11 11:01N 24°14' E 118°56'4 8.2
2018-Jul-11 10:30N 24°17' E 118°59'2 3.3
2018-Jul-11 09:56N 24°15' E 118°59'1 3.5
2018-Jul-11 09:30N 24°14' E 118°59'2 3.4
2018-Jul-11 09:00N 24°12' E 118°58'2 3.2
2018-Jul-11 08:29N 24°11' E 118°57'2 3.2
2018-Jul-11 07:57N 24°09' E 118°56'1 2.9
2018-Jul-11 07:30N 24°08' E 118°55'2 2.9
2018-Jul-11 06:52N 24°07' E 118°54'2 2.7
2018-Jul-11 06:11N 24°05' E 118°52'1 2.5
2018-Jul-11 05:59N 24°05' E 118°52'1 2.4
2018-Jul-11 05:30N 24°04' E 118°51'1 2.4
2018-Jul-11 04:58N 24°04' E 118°50'1 2.5
2018-Jul-11 04:30N 24°03' E 118°49'1 2.3
2018-Jul-11 03:59N 24°02' E 118°48'1 2.3
2018-Jul-11 03:30N 24°02' E 118°47'1 2.4
2018-Jul-11 03:00N 24°01' E 118°45'1 2.6
2018-Jul-11 02:30N 24°01' E 118°44'1 2.4
2018-Jul-11 02:00N 24°00' E 118°43'1 2.5
2018-Jul-11 01:28N 23°60' E 118°42'1 2.4
2018-Jul-11 01:00N 23°59' E 118°40'1 2.5
2018-Jul-11 00:30N 23°59' E 118°39'1 2.5
2018-Jul-11 00:00N 23°58' E 118°38'1 2.8
2018-Jul-10 23:30N 23°58' E 118°37'1 2.9
2018-Jul-10 23:00N 23°57' E 118°35'2 3.0
2018-Jul-10 22:30N 23°56' E 118°34'0 0.9
2018-Jul-10 22:00N 23°56' E 118°34'4 8.4
2018-Jul-10 21:30N 23°59' E 118°38'4 8.5
2018-Jul-10 21:00N 24°02' E 118°41'4 8.6
2018-Jul-10 20:30N 24°04' E 118°45'10 8.9
2018-Jul-10 19:22N 24°11' E 118°53'710.2
2018-Jul-10 18:42N 24°16' E 118°59'310.8
2018-Jul-10 18:28N 24°17' E 119°01'611.2
2018-Jul-10 17:54N 24°22' E 119°06'  
Track history (hours):
 
Tides and Currents Weather Stations Pressure Air Temp Water Temp Dewpoint Dewpoint Depression Visibility Wind Speed Wind Dir Waves Ship Positions

Aristomenis

Last reported at 2018-Jul-17 16:24 UTC. Time now 2018-Jul-20 06:54 UTC.
Position N 35°05' E 129°26'.

Length 350 m; draft 9 m.

Type: Ship (hazmat cat B). MMSI: 636018070.

Date/timePositionNaut miles runAvg speedWind from/ knotsBaromVisibWave heightAir tempDewpointWater temp
2018-Jul-17 16:24N 35°05' E 129°26'613.9
2018-Jul-17 16:00N 35°00' E 129°22'713.6
2018-Jul-17 15:30N 34°55' E 129°17'  
2018-Jul-14 06:57N 24°29' E 119°15'6 9.7
2018-Jul-14 06:20N 24°25' E 119°10'9 9.5
2018-Jul-14 05:26N 24°20' E 119°03'4 9.3
2018-Jul-14 04:59N 24°17' E 118°59'5 9.1
2018-Jul-14 04:27N 24°14' E 118°55'0 0.0
2018-Jul-13 21:40N 24°14' E 118°55'0 0.3
2018-Jul-13 21:28N 24°14' E 118°55'0 0.0
2018-Jul-13 20:58N 24°14' E 118°55'0 0.0
2018-Jul-13 20:28N 24°14' E 118°55'0 0.0
2018-Jul-13 19:46N 24°14' E 118°55'0 0.0
2018-Jul-13 19:16N 24°14' E 118°55'0 0.0
2018-Jul-13 18:58N 24°14' E 118°55'0 0.0
2018-Jul-13 18:19N 24°14' E 118°55'0 0.0
2018-Jul-13 17:58N 24°14' E 118°55'0 0.0
2018-Jul-13 17:28N 24°14' E 118°55'0 0.0
2018-Jul-13 16:58N 24°14' E 118°55'0 0.3
2018-Jul-13 16:22N 24°14' E 118°55'0 0.0
2018-Jul-13 09:16N 24°14' E 118°55'0 0.0
2018-Jul-12 22:40N 24°14' E 118°55'0 0.1
2018-Jul-12 19:22N 24°14' E 118°55'0 0.0
2018-Jul-12 18:52N 24°14' E 118°55'0 0.1
2018-Jul-12 18:28N 24°14' E 118°55'0 0.1
2018-Jul-12 17:46N 24°14' E 118°55'0 0.0
2018-Jul-12 07:43N 24°14' E 118°55'0 0.2
2018-Jul-12 07:28N 24°14' E 118°55'0 0.1
2018-Jul-12 06:40N 24°14' E 118°55'0 0.1
2018-Jul-12 06:19N 24°14' E 118°55'0 0.0
2018-Jul-12 03:43N 24°14' E 118°55'0 0.0
2018-Jul-12 03:28N 24°14' E 118°55'0 0.1
2018-Jul-12 02:10N 24°14' E 118°55'0 0.1
2018-Jul-11 23:16N 24°14' E 118°55'0 0.0
2018-Jul-11 22:52N 24°14' E 118°55'0 0.0
2018-Jul-11 22:22N 24°14' E 118°55'0 0.0
2018-Jul-11 21:52N 24°14' E 118°55'0 0.0
2018-Jul-11 20:40N 24°14' E 118°55'0 0.0
2018-Jul-11 20:10N 24°14' E 118°55'0 0.2
2018-Jul-11 19:46N 24°14' E 118°55'0 0.0
2018-Jul-11 17:22N 24°14' E 118°55'0 0.0
2018-Jul-11 16:22N 24°14' E 118°55'0 0.1
2018-Jul-11 15:58N 24°14' E 118°55'0 0.1
2018-Jul-11 14:34N 24°14' E 118°55'0 0.5
2018-Jul-11 14:28N 24°14' E 118°55'0 0.0
2018-Jul-11 13:31N 24°14' E 118°55'0 0.0
2018-Jul-11 13:22N 24°14' E 118°55'0 0.0
2018-Jul-11 12:55N 24°14' E 118°55'0 0.0
2018-Jul-11 12:10N 24°14' E 118°55'0 0.3
2018-Jul-11 11:58N 24°14' E 118°55'0 0.1
2018-Jul-11 11:28N 24°14' E 118°55'1 1.8
2018-Jul-11 11:01N 24°14' E 118°56'4 8.2
2018-Jul-11 10:30N 24°17' E 118°59'2 3.3
2018-Jul-11 09:56N 24°15' E 118°59'1 3.5
2018-Jul-11 09:30N 24°14' E 118°59'2 3.4
2018-Jul-11 09:00N 24°12' E 118°58'2 3.2
2018-Jul-11 08:29N 24°11' E 118°57'2 3.2
2018-Jul-11 07:57N 24°09' E 118°56'1 2.9
2018-Jul-11 07:30N 24°08' E 118°55'2 2.9
2018-Jul-11 06:52N 24°07' E 118°54'2 2.7
2018-Jul-11 06:11N 24°05' E 118°52'1 2.5
2018-Jul-11 05:59N 24°05' E 118°52'1 2.4
2018-Jul-11 05:30N 24°04' E 118°51'1 2.4
2018-Jul-11 04:58N 24°04' E 118°50'1 2.5
2018-Jul-11 04:30N 24°03' E 118°49'1 2.3
2018-Jul-11 03:59N 24°02' E 118°48'1 2.3
2018-Jul-11 03:30N 24°02' E 118°47'1 2.4
2018-Jul-11 03:00N 24°01' E 118°45'1 2.6
2018-Jul-11 02:30N 24°01' E 118°44'1 2.4
2018-Jul-11 02:00N 24°00' E 118°43'1 2.5
2018-Jul-11 01:28N 23°60' E 118°42'1 2.4
2018-Jul-11 01:00N 23°59' E 118°40'1 2.5
2018-Jul-11 00:30N 23°59' E 118°39'1 2.5
2018-Jul-11 00:00N 23°58' E 118°38'1 2.8
2018-Jul-10 23:30N 23°58' E 118°37'1 2.9
2018-Jul-10 23:00N 23°57' E 118°35'2 3.0
2018-Jul-10 22:30N 23°56' E 118°34'0 0.9
2018-Jul-10 22:00N 23°56' E 118°34'4 8.4
2018-Jul-10 21:30N 23°59' E 118°38'4 8.5
2018-Jul-10 21:00N 24°02' E 118°41'4 8.6
2018-Jul-10 20:30N 24°04' E 118°45'10 8.9
2018-Jul-10 19:22N 24°11' E 118°53'710.2
2018-Jul-10 18:42N 24°16' E 118°59'310.8
2018-Jul-10 18:28N 24°17' E 119°01'611.2
2018-Jul-10 17:54N 24°22' E 119°06'  

Dump ship's entire track history